Saturday, December 16, 2017, 9:11 PM EST
Back to Local

KTAN, Taunton Municipal Airport

Location: East Taunton, MA, United States Lat: 41.883
Local Time: 9:11 PM EST ( 2:11 GMT) Lon: -71.017
Time Zone: US/Eastern Elev: 42 ft

Show me the last for .
Show Decoded

2017-12-16 20:52 METAR KTAN 170152Z AUTO 31005KT 10SM CLR M02/M09 A3012 RMK AO2 SLP199 T10221089
                 =
2017-12-16 19:52 METAR KTAN 170052Z AUTO 29004KT 10SM CLR M02/M08 A3008 RMK AO2 SLP186 T10221078
                 =
2017-12-16 18:52 METAR KTAN 162352Z AUTO 28005KT 10SM BKN080 M02/M07 A3005 RMK AO2 SLP177
                 T10171072 10006 21033 53037 =
2017-12-16 17:52 METAR KTAN 162252Z AUTO 29006KT 10SM OVC085 M01/M08 A3002 RMK AO2 SLP165
                 T10111078 =
2017-12-16 16:52 METAR KTAN 162152Z AUTO 00000KT 10SM OVC110 M02/M08 A2998 RMK AO2 SLP152
                 T10171078 =
2017-12-16 15:52 METAR KTAN 162052Z AUTO 00000KT 10SM FEW050 BKN110 M01/M08 A2995 RMK AO2 SLP140
                 T10061083 53012 =
2017-12-16 14:52 METAR KTAN 161952Z AUTO 25006KT 10SM SCT100 00/M09 A2993 RMK AO2 SLP136
                 T00001089 =
2017-12-16 13:52 METAR KTAN 161852Z AUTO 26008G15KT 10SM OVC100 00/M09 A2991 RMK AO2 SLP129
                 T00001094 =
2017-12-16 12:52 METAR KTAN 161752Z AUTO 27007G18KT 10SM OVC110 00/M10 A2991 RMK AO2 SLP129
                 T00001100 10006 21078 56018 =
2017-12-16 11:52 METAR KTAN 161652Z AUTO 28009G18KT 10SM CLR 00/M09 A2993 RMK AO2 SLP134
                 T00001094 =
2017-12-16 10:52 METAR KTAN 161552Z AUTO 27011G17KT 10SM CLR M01/M09 A2995 RMK AO2 SLP141
                 T10061094 =
2017-12-16 09:52 METAR KTAN 161452Z AUTO 26008KT 230V290 10SM CLR M03/M09 A2997 RMK AO2 SLP147
                 T10281089 53021 =
2017-12-16 08:52 METAR KTAN 161352Z AUTO 25004KT 10SM CLR M05/M09 A2994 RMK AO2 SLP138 T10501089
                 =
2017-12-16 07:52 METAR KTAN 161252Z AUTO 25006KT 10SM CLR M07/M09 A2992 RMK AO2 SLP130 T10671094
                 =
2017-12-16 06:52 METAR KTAN 161152Z AUTO 25004KT 10SM CLR M07/M09 A2990 RMK AO2 SLP126 T10721094
                 11056 21078 52023 =
2017-12-16 05:52 METAR KTAN 161052Z AUTO 24005KT 10SM CLR M07/M09 A2988 RMK AO2 SLP118 T10721089
                 =
2017-12-16 04:52 METAR KTAN 160952Z AUTO 26003KT 10SM CLR M08/M09 A2986 RMK AO2 SLP111 T10781089
                 =
2017-12-16 03:52 METAR KTAN 160852Z AUTO 26004KT 10SM BKN090 M06/M08 A2984 RMK AO2 SLP103
                 T10611083 51012 =
2017-12-16 02:52 METAR KTAN 160752Z AUTO 25004KT 10SM OVC095 M06/M07 A2983 RMK AO2 SLP101
                 T10561072 =
2017-12-16 01:52 METAR KTAN 160652Z AUTO 00000KT 9SM OVC095 M06/M07 A2981 RMK AO2 SLP094
                 T10561072 =
2017-12-16 00:52 METAR KTAN 160552Z AUTO 25003KT 8SM FEW029 BKN100 M06/M07 A2980 RMK AO2 SNE07
                 SLP091 P0000 60000 T10561067 11044 21056 56011 =
2017-12-16 00:15 METAR KTAN 160515Z AUTO 29003KT 7SM BKN026 BKN040 OVC050 M05/M06 A2980 RMK AO2
                 SNE07 P0000 T10501061 =
2017-12-15 23:52 METAR KTAN 160452Z AUTO 00000KT 3SM -SN BR BKN031 OVC042 M05/M06 A2981 RMK AO2
                 SLP095 P0000 T10501061 410281144 =
2017-12-15 23:47 METAR KTAN 160447Z AUTO 30003KT 2 1/2SM -SN BR OVC031 M05/M06 A2981 RMK AO2
                 P0000 =
2017-12-15 23:09 METAR KTAN 160409Z AUTO 30003KT 1 3/4SM -SN BR OVC024 M04/M06 A2982 RMK AO2
                 P0000 T10441061 =
2017-12-15 22:52 METAR KTAN 160352Z AUTO 00000KT 1 1/4SM -SN BR OVC020 M04/M06 A2983 RMK AO2
                 SLP102 P0000 T10441056 =
2017-12-15 22:28 METAR KTAN 160328Z AUTO 00000KT 1 1/2SM -SN BR OVC021 M04/M06 A2984 RMK AO2
                 P0000 T10441061 =
2017-12-15 21:52 METAR KTAN 160252Z AUTO 33003KT 1 1/4SM -SN BR OVC025 M04/M06 A2985 RMK AO2
                 SLP107 P0000 60000 T10441056 56013 =
2017-12-15 21:28 METAR KTAN 160228Z AUTO 32003KT 1 3/4SM -SN BR FEW018 OVC033 M05/M06 A2985 RMK
                 AO2 P0000 T10501061 =

Support USWX by starting your Amazon purchase here.